Time;durP1;ratioP1;P1;durP2;ratioP2;P2;SDS_P1;SDS_P2;PMS_P1;PMS_P2;Temp;Humidity;BMP_temperature;BMP_pressure;BME280_temperature;BME280_humidity;BME280_pressure;Samples;Min_cycle;Max_cycle;Signal;HPM_P1;HPM_P2
2022/03/14 00:00:08;;;;;;;10.60;8.52;;;;;;;;;;5027728;28;20033;-63
2022/03/14 00:02:34;;;;;;;9.77;8.48;;;;;;;;;;5029168;28;20389;-63
2022/03/14 00:05:04;;;;;;;11.82;9.10;;;;;;;;;;5027814;28;20045;-63
2022/03/14 00:07:30;;;;;;;11.15;8.60;;;;;;;;;;5028554;28;20041;-62
2022/03/14 00:09:57;;;;;;;10.10;9.05;;;;;;;;;;5029140;28;20056;-62
2022/03/14 00:12:25;;;;;;;9.77;8.70;;;;;;;;;;5027527;28;20104;-61
2022/03/14 00:14:55;;;;;;;10.32;8.13;;;;;;;;;;5027715;28;20518;-63
2022/03/14 00:17:25;;;;;;;12.50;8.73;;;;;;;;;;5028694;28;20103;-62
2022/03/14 00:19:51;;;;;;;12.00;9.07;;;;;;;;;;5028443;28;20046;-62
2022/03/14 00:22:20;;;;;;;10.73;8.38;;;;;;;;;;5027058;28;20049;-62
2022/03/14 00:24:47;;;;;;;11.68;8.82;;;;;;;;;;5028375;28;20076;-62
2022/03/14 00:27:13;;;;;;;11.68;8.63;;;;;;;;;;5028151;28;20124;-61
2022/03/14 00:29:39;;;;;;;9.73;8.68;;;;;;;;;;5028219;28;20049;-61
2022/03/14 00:32:05;;;;;;;10.73;8.73;;;;;;;;;;5028103;28;20562;-63
2022/03/14 00:34:31;;;;;;;10.57;8.50;;;;;;;;;;5029227;28;20041;-62
2022/03/14 00:36:58;;;;;;;13.10;8.88;;;;;;;;;;5027561;28;20052;-62
2022/03/14 00:39:24;;;;;;;10.10;8.70;;;;;;;;;;5029036;28;20095;-61
2022/03/14 00:41:50;;;;;;;12.02;8.40;;;;;;;;;;5029469;28;20043;-62
2022/03/14 00:44:17;;;;;;;10.63;8.98;;;;;;;;;;5029222;28;20426;-61
2022/03/14 00:46:43;;;;;;;10.40;8.48;;;;;;;;;;5027708;28;20049;-62
2022/03/14 00:49:10;;;;;;;10.70;9.00;;;;;;;;;;5044267;28;20487;-61
2022/03/14 00:51:36;;;;;;;11.23;9.13;;;;;;;;;;5044427;28;20041;-61
2022/03/14 00:54:03;;;;;;;10.30;9.00;;;;;;;;;;5029331;28;20044;-63
2022/03/14 00:56:29;;;;;;;10.93;8.45;;;;;;;;;;5027531;28;20041;-62
2022/03/14 00:58:58;;;;;;;10.00;8.65;;;;;;;;;;5027842;28;20506;-61
2022/03/14 01:01:25;;;;;;;11.35;8.68;;;;;;;;;;5027547;28;20057;-62
2022/03/14 01:03:51;;;;;;;11.30;9.50;;;;;;;;;;5027534;28;20523;-62
2022/03/14 01:06:17;;;;;;;11.30;8.25;;;;;;;;;;5028596;28;20051;-61
2022/03/14 01:08:43;;;;;;;11.85;8.68;;;;;;;;;;5027284;28;20091;-62
2022/03/14 01:11:09;;;;;;;11.18;8.43;;;;;;;;;;5026745;28;20053;-62
2022/03/14 01:13:35;;;;;;;10.85;8.77;;;;;;;;;;5027594;28;20040;-61
2022/03/14 01:16:02;;;;;;;12.52;8.55;;;;;;;;;;5028375;28;20045;-61
2022/03/14 01:18:28;;;;;;;10.48;9.23;;;;;;;;;;5027123;28;20057;-61
2022/03/14 01:20:54;;;;;;;11.48;8.93;;;;;;;;;;5027583;28;20046;-61
2022/03/14 01:23:20;;;;;;;11.38;8.77;;;;;;;;;;5028019;28;20132;-61
2022/03/14 01:25:47;;;;;;;10.60;9.40;;;;;;;;;;5027330;28;20046;-62
2022/03/14 01:28:14;;;;;;;11.05;9.32;;;;;;;;;;5027430;28;20037;-62
2022/03/14 01:30:42;;;;;;;12.05;9.23;;;;;;;;;;5028089;28;20479;-62
2022/03/14 01:33:08;;;;;;;13.57;10.07;;;;;;;;;;5026607;28;20341;-61
2022/03/14 01:35:35;;;;;;;12.95;10.23;;;;;;;;;;5027865;28;21240;-62
2022/03/14 01:38:01;;;;;;;16.85;9.90;;;;;;;;;;5025676;28;20037;-62
2022/03/14 01:40:28;;;;;;;12.05;10.18;;;;;;;;;;5026845;28;20048;-61
2022/03/14 01:42:54;;;;;;;13.18;10.40;;;;;;;;;;5027370;28;20029;-61
2022/03/14 01:45:21;;;;;;;12.43;10.20;;;;;;;;;;5026880;28;20190;-61
2022/03/14 01:47:48;;;;;;;12.40;9.82;;;;;;;;;;5028964;28;20524;-61
2022/03/14 01:50:15;;;;;;;14.63;9.40;;;;;;;;;;5026774;28;20053;-61
2022/03/14 01:52:43;;;;;;;11.65;10.25;;;;;;;;;;5025945;28;20034;-61
2022/03/14 01:55:09;;;;;;;13.18;10.77;;;;;;;;;;4992910;28;20057;-60
2022/03/14 01:57:36;;;;;;;12.00;10.00;;;;;;;;;;5027482;28;20084;-60
2022/03/14 02:00:03;;;;;;;11.60;9.90;;;;;;;;;;5026936;28;20029;-62
2022/03/14 02:02:29;;;;;;;13.25;10.43;;;;;;;;;;5027257;28;20484;-61
2022/03/14 02:04:55;;;;;;;12.73;10.07;;;;;;;;;;5026748;28;20049;-61
2022/03/14 02:07:21;;;;;;;12.05;9.73;;;;;;;;;;5027062;28;20060;-61
2022/03/14 02:09:47;;;;;;;12.55;10.10;;;;;;;;;;5026951;28;20563;-61
2022/03/14 02:12:13;;;;;;;11.75;10.45;;;;;;;;;;5026415;28;20129;-61
2022/03/14 02:14:39;;;;;;;13.70;10.32;;;;;;;;;;5027953;28;20415;-61
2022/03/14 02:17:10;;;;;;;12.20;10.32;;;;;;;;;;5026770;28;20041;-63
2022/03/14 02:19:36;;;;;;;12.68;10.60;;;;;;;;;;5010038;28;20491;-62
2022/03/14 02:22:06;;;;;;;11.90;10.60;;;;;;;;;;5026546;28;20491;-61
2022/03/14 02:24:32;;;;;;;11.10;9.98;;;;;;;;;;5025990;28;20043;-61
2022/03/14 02:26:58;;;;;;;13.23;10.90;;;;;;;;;;5027103;28;20454;-62
2022/03/14 02:29:24;;;;;;;14.40;10.55;;;;;;;;;;5024135;28;20096;-60
2022/03/14 02:31:51;;;;;;;15.38;10.43;;;;;;;;;;5025716;28;20041;-62
2022/03/14 02:34:17;;;;;;;12.45;10.27;;;;;;;;;;5025741;28;20033;-62
2022/03/14 02:36:44;;;;;;;12.07;10.18;;;;;;;;;;5025420;28;20444;-62
2022/03/14 02:39:10;;;;;;;12.15;10.02;;;;;;;;;;5025002;28;20049;-61
2022/03/14 02:41:36;;;;;;;12.70;11.10;;;;;;;;;;5026302;28;21193;-62
2022/03/14 02:44:06;;;;;;;15.23;11.23;;;;;;;;;;5024965;28;20041;-63
2022/03/14 02:46:37;;;;;;;11.68;10.48;;;;;;;;;;5008090;28;20053;-62
2022/03/14 02:49:03;;;;;;;12.40;10.07;;;;;;;;;;5027045;28;20399;-62
2022/03/14 02:51:29;;;;;;;14.00;10.73;;;;;;;;;;5024837;28;20487;-63
2022/03/14 02:53:56;;;;;;;13.07;10.80;;;;;;;;;;5025405;28;20084;-62
2022/03/14 02:56:22;;;;;;;17.38;14.30;;;;;;;;;;5024469;28;20060;-63
2022/03/14 02:58:51;;;;;;;17.55;14.82;;;;;;;;;;5026732;28;20095;-63
2022/03/14 03:01:18;;;;;;;16.13;14.43;;;;;;;;;;5025369;28;20487;-63
2022/03/14 03:03:44;;;;;;;14.07;12.02;;;;;;;;;;5026781;28;20495;-62
2022/03/14 03:06:12;;;;;;;13.80;10.95;;;;;;;;;;5024533;28;20163;-63
2022/03/14 03:08:38;;;;;;;13.10;10.10;;;;;;;;;;5023662;28;20401;-62
2022/03/14 03:11:08;;;;;;;11.45;10.25;;;;;;;;;;5025787;28;20424;-62
2022/03/14 03:13:35;;;;;;;11.25;9.52;;;;;;;;;;5024943;28;20494;-62
2022/03/14 03:16:01;;;;;;;14.02;10.45;;;;;;;;;;5024719;28;20077;-63
2022/03/14 03:18:27;;;;;;;12.85;10.23;;;;;;;;;;5024669;28;20049;-64
2022/03/14 03:20:53;;;;;;;13.07;10.45;;;;;;;;;;5025177;28;20049;-62
2022/03/14 03:23:20;;;;;;;11.35;9.75;;;;;;;;;;5024634;28;20049;-62
2022/03/14 03:25:46;;;;;;;15.80;11.18;;;;;;;;;;5024371;28;20053;-64
2022/03/14 03:28:12;;;;;;;12.35;10.98;;;;;;;;;;5024653;28;20034;-63
2022/03/14 03:30:38;;;;;;;12.38;10.55;;;;;;;;;;5024140;28;20120;-63
2022/03/14 03:33:04;;;;;;;15.77;11.23;;;;;;;;;;5026480;28;20149;-62
2022/03/14 03:35:30;;;;;;;11.65;10.45;;;;;;;;;;5024643;28;20310;-62
2022/03/14 03:37:56;;;;;;;15.75;10.60;;;;;;;;;;5024856;28;20041;-62
2022/03/14 03:40:22;;;;;;;12.70;10.93;;;;;;;;;;5027130;28;20030;-62
2022/03/14 03:42:48;;;;;;;13.30;11.05;;;;;;;;;;5028439;28;20044;-62
2022/03/14 03:45:14;;;;;;;15.38;11.10;;;;;;;;;;5011363;28;20057;-61
2022/03/14 03:47:46;;;;;;;13.32;10.48;;;;;;;;;;5028543;28;20060;-63
2022/03/14 03:50:12;;;;;;;12.60;10.93;;;;;;;;;;5030115;28;20045;-62
2022/03/14 03:52:38;;;;;;;11.90;10.20;;;;;;;;;;5010773;28;20037;-62
2022/03/14 03:55:05;;;;;;;11.05;9.82;;;;;;;;;;5027880;28;20079;-63
2022/03/14 03:57:31;;;;;;;13.15;10.43;;;;;;;;;;5029080;28;20114;-62
2022/03/14 03:59:58;;;;;;;10.85;9.75;;;;;;;;;;5028532;28;20048;-61
2022/03/14 04:02:24;;;;;;;10.48;9.48;;;;;;;;;;5029033;28;20551;-62
2022/03/14 04:04:50;;;;;;;10.57;9.48;;;;;;;;;;5027823;28;20045;-63
2022/03/14 04:07:23;;;;;;;10.48;9.38;;;;;;;;;;5027420;28;20124;-63
2022/03/14 04:09:55;;;;;;;10.43;9.32;;;;;;;;;;5029399;28;20041;-63
2022/03/14 04:12:23;;;;;;;10.40;9.23;;;;;;;;;;5010246;28;20041;-64
2022/03/14 04:14:49;;;;;;;10.15;9.05;;;;;;;;;;5010502;28;20132;-63
2022/03/14 04:17:15;;;;;;;10.80;9.23;;;;;;;;;;5028568;28;20053;-62
2022/03/14 04:19:42;;;;;;;9.82;8.82;;;;;;;;;;5029859;28;20056;-64
2022/03/14 04:22:09;;;;;;;10.25;8.75;;;;;;;;;;5045549;28;20422;-63
2022/03/14 04:24:37;;;;;;;10.25;8.68;;;;;;;;;;5028314;28;20041;-63
2022/03/14 04:27:03;;;;;;;10.18;8.65;;;;;;;;;;5029812;28;20389;-63
2022/03/14 04:29:30;;;;;;;9.20;8.18;;;;;;;;;;5027600;28;20038;-62
2022/03/14 04:31:56;;;;;;;9.88;8.55;;;;;;;;;;5027718;28;20030;-63
2022/03/14 04:34:22;;;;;;;9.20;7.70;;;;;;;;;;5028614;28;20042;-63
2022/03/14 04:36:51;;;;;;;9.15;7.85;;;;;;;;;;5029576;28;20551;-65
2022/03/14 04:39:18;;;;;;;9.25;8.27;;;;;;;;;;5027156;28;20395;-63
2022/03/14 04:41:44;;;;;;;10.23;8.27;;;;;;;;;;5026267;28;20509;-64
2022/03/14 04:44:10;;;;;;;9.50;8.20;;;;;;;;;;5029401;28;20068;-63
2022/03/14 04:46:37;;;;;;;10.07;8.88;;;;;;;;;;5027328;28;20166;-63
2022/03/14 04:49:04;;;;;;;8.82;7.93;;;;;;;;;;5026926;28;20060;-63
2022/03/14 04:51:33;;;;;;;10.13;9.13;;;;;;;;;;5027681;28;20409;-63
2022/03/14 04:53:59;;;;;;;10.00;7.88;;;;;;;;;;5028129;28;20103;-63
2022/03/14 04:56:25;;;;;;;10.27;9.02;;;;;;;;;;5027519;28;20049;-64
2022/03/14 04:58:52;;;;;;;9.80;8.80;;;;;;;;;;5028361;28;20068;-63
2022/03/14 05:01:23;;;;;;;9.07;8.25;;;;;;;;;;5027791;28;20041;-63
2022/03/14 05:03:49;;;;;;;9.68;8.25;;;;;;;;;;5025040;28;20063;-62
2022/03/14 05:06:16;;;;;;;9.32;8.27;;;;;;;;;;5029186;28;20045;-63
2022/03/14 05:08:42;;;;;;;8.85;7.88;;;;;;;;;;5029387;28;20096;-62
2022/03/14 05:11:11;;;;;;;7.82;7.00;;;;;;;;;;5027760;28;20084;-63
2022/03/14 05:13:37;;;;;;;8.70;7.80;;;;;;;;;;5026500;28;20041;-63
2022/03/14 05:16:03;;;;;;;7.72;6.90;;;;;;;;;;5027062;28;20042;-63
2022/03/14 05:18:29;;;;;;;8.32;7.53;;;;;;;;;;5028607;28;20092;-63
2022/03/14 05:20:56;;;;;;;8.73;7.47;;;;;;;;;;5028217;28;20530;-63
2022/03/14 05:23:23;;;;;;;8.55;7.72;;;;;;;;;;5028677;28;20071;-62
2022/03/14 05:25:49;;;;;;;8.55;7.35;;;;;;;;;;5028514;28;20049;-63
2022/03/14 05:28:15;;;;;;;9.13;7.25;;;;;;;;;;5027333;28;20050;-62
2022/03/14 05:30:41;;;;;;;8.15;7.35;;;;;;;;;;5027418;28;20106;-64
2022/03/14 05:33:07;;;;;;;8.82;7.93;;;;;;;;;;5010753;28;20049;-63
2022/03/14 05:35:33;;;;;;;9.05;7.88;;;;;;;;;;5027104;28;20064;-62
2022/03/14 05:37:59;;;;;;;8.90;7.30;;;;;;;;;;5027221;28;20044;-62
2022/03/14 05:40:26;;;;;;;8.27;7.43;;;;;;;;;;5027286;28;20042;-63
2022/03/14 05:42:53;;;;;;;8.27;7.28;;;;;;;;;;5027112;28;20153;-63
2022/03/14 05:45:20;;;;;;;7.60;6.90;;;;;;;;;;5025882;28;20052;-62
2022/03/14 05:47:46;;;;;;;7.10;6.32;;;;;;;;;;5026176;28;20042;-62
2022/03/14 05:50:12;;;;;;;9.32;6.53;;;;;;;;;;5026010;28;20041;-62
2022/03/14 05:52:39;;;;;;;6.75;5.88;;;;;;;;;;5026795;28;20497;-63
2022/03/14 05:55:07;;;;;;;6.70;6.10;;;;;;;;;;5025838;28;20049;-64
2022/03/14 05:57:34;;;;;;;6.07;5.47;;;;;;;;;;5025740;28;20033;-62
2022/03/14 06:00:00;;;;;;;6.15;5.65;;;;;;;;;;5025802;28;20042;-62
2022/03/14 06:02:26;;;;;;;6.90;5.95;;;;;;;;;;5010206;28;20394;-64
2022/03/14 06:04:53;;;;;;;5.43;4.80;;;;;;;;;;5026341;28;20048;-63
2022/03/14 06:07:21;;;;;;;7.15;5.43;;;;;;;;;;5026994;28;20103;-63
2022/03/14 06:09:50;;;;;;;6.18;5.07;;;;;;;;;;5025423;28;20041;-64
2022/03/14 06:12:24;;;;;;;6.25;5.65;;;;;;;;;;5027985;28;20128;-62
2022/03/14 06:14:50;;;;;;;;;;;;;;;;;;5026843;28;20033;-63
2022/03/14 06:17:16;;;;;;;7.03;5.32;;;;;;;;;;5028219;28;19963;-63
2022/03/14 06:19:42;;;;;;;6.88;4.95;;;;;;;;;;5028256;28;20511;-63
2022/03/14 06:22:08;;;;;;;6.88;4.47;;;;;;;;;;5027924;28;20125;-63
2022/03/14 06:24:34;;;;;;;5.68;5.18;;;;;;;;;;5026170;28;20041;-62
2022/03/14 06:27:00;;;;;;;5.80;5.15;;;;;;;;;;5028402;28;20120;-64
2022/03/14 06:29:26;;;;;;;6.38;5.78;;;;;;;;;;5025863;28;20048;-63
2022/03/14 06:31:52;;;;;;;7.53;5.22;;;;;;;;;;5025990;28;20060;-64
2022/03/14 06:34:18;;;;;;;6.13;5.53;;;;;;;;;;5024980;28;20036;-63
2022/03/14 06:36:46;;;;;;;5.95;5.40;;;;;;;;;;5009825;28;20051;-63
2022/03/14 06:39:12;;;;;;;7.68;5.70;;;;;;;;;;5025488;28;20120;-64
2022/03/14 06:41:38;;;;;;;7.22;6.10;;;;;;;;;;5026187;28;20069;-65
2022/03/14 06:44:05;;;;;;;8.02;5.40;;;;;;;;;;5025758;28;20347;-64
2022/03/14 06:46:34;;;;;;;8.18;5.70;;;;;;;;;;5025786;28;20664;-64
2022/03/14 06:49:00;;;;;;;7.18;6.47;;;;;;;;;;5027463;28;20044;-64
2022/03/14 06:51:26;;;;;;;6.72;6.00;;;;;;;;;;5025277;28;20039;-65
2022/03/14 06:53:54;;;;;;;6.35;5.72;;;;;;;;;;5010241;28;20649;-64
2022/03/14 06:56:21;;;;;;;6.68;6.05;;;;;;;;;;5027662;28;20042;-65
2022/03/14 06:58:47;;;;;;;6.80;6.20;;;;;;;;;;5026118;28;20046;-65
2022/03/14 07:01:13;;;;;;;6.90;5.68;;;;;;;;;;5027308;28;20216;-64
2022/03/14 07:03:39;;;;;;;7.93;6.60;;;;;;;;;;5031551;28;20038;-65
2022/03/14 07:06:05;;;;;;;7.75;6.55;;;;;;;;;;5025876;28;20049;-65
2022/03/14 07:08:31;;;;;;;7.22;6.45;;;;;;;;;;5025782;28;20041;-64
2022/03/14 07:10:57;;;;;;;7.68;6.72;;;;;;;;;;5009529;28;20143;-64
2022/03/14 07:13:23;;;;;;;7.78;7.03;;;;;;;;;;5027707;28;20037;-65
2022/03/14 07:15:49;;;;;;;9.25;7.53;;;;;;;;;;5007512;28;20041;-64
2022/03/14 07:18:15;;;;;;;8.13;7.32;;;;;;;;;;5035834;28;20399;-65
2022/03/14 07:20:42;;;;;;;7.75;6.82;;;;;;;;;;5030928;28;20507;-65
2022/03/14 07:23:08;;;;;;;7.95;6.95;;;;;;;;;;5030743;28;20042;-64
2022/03/14 07:25:37;;;;;;;8.43;7.57;;;;;;;;;;5028862;28;20168;-65
2022/03/14 07:28:07;;;;;;;9.50;7.68;;;;;;;;;;5030778;28;20342;-65
2022/03/14 07:30:34;;;;;;;8.68;7.78;;;;;;;;;;5029072;28;20033;-65
2022/03/14 07:33:00;;;;;;;9.07;7.43;;;;;;;;;;5029462;28;20041;-64
2022/03/14 07:35:27;;;;;;;9.85;8.60;;;;;;;;;;5013231;28;20045;-64
2022/03/14 07:37:53;;;;;;;8.50;7.35;;;;;;;;;;5029457;28;20257;-65
2022/03/14 07:40:20;;;;;;;9.93;8.90;;;;;;;;;;5027673;28;20124;-66
2022/03/14 07:42:50;;;;;;;9.15;8.02;;;;;;;;;;5029878;28;20395;-64
2022/03/14 07:45:17;;;;;;;10.20;9.18;;;;;;;;;;5028996;28;20107;-65
2022/03/14 07:47:43;;;;;;;10.18;9.05;;;;;;;;;;5028743;28;20139;-65
2022/03/14 07:50:11;;;;;;;10.88;9.75;;;;;;;;;;5029159;28;20072;-64
2022/03/14 07:52:37;;;;;;;10.05;9.02;;;;;;;;;;5029221;28;20042;-65
2022/03/14 07:55:05;;;;;;;12.57;10.50;;;;;;;;;;5028495;28;20045;-65
2022/03/14 07:57:32;;;;;;;12.73;10.50;;;;;;;;;;5012478;28;20049;-64
2022/03/14 07:59:59;;;;;;;10.45;8.70;;;;;;;;;;5011928;28;20026;-64
2022/03/14 08:02:25;;;;;;;13.90;11.65;;;;;;;;;;5028805;28;20037;-64
2022/03/14 08:04:51;;;;;;;9.88;8.88;;;;;;;;;;5028858;28;20140;-64
2022/03/14 08:07:18;;;;;;;10.82;8.90;;;;;;;;;;5028790;28;20067;-64
2022/03/14 08:09:44;;;;;;;11.32;10.13;;;;;;;;;;5027763;28;20444;-63
2022/03/14 08:12:12;;;;;;;10.70;9.50;;;;;;;;;;5029452;28;20368;-64
2022/03/14 08:14:38;;;;;;;11.25;10.07;;;;;;;;;;5030350;28;20439;-64
2022/03/14 08:17:04;;;;;;;11.25;9.75;;;;;;;;;;5029036;28;20111;-65
2022/03/14 08:19:30;;;;;;;10.45;9.40;;;;;;;;;;5027418;28;20061;-64
2022/03/14 08:21:58;;;;;;;11.10;9.30;;;;;;;;;;5029536;28;20584;-64
2022/03/14 08:24:24;;;;;;;11.65;8.75;;;;;;;;;;5027708;28;20048;-64
2022/03/14 08:26:50;;;;;;;11.05;9.77;;;;;;;;;;5009630;28;20037;-63
2022/03/14 08:29:17;;;;;;;12.45;10.80;;;;;;;;;;5027379;28;20049;-64
2022/03/14 08:31:43;;;;;;;10.65;9.63;;;;;;;;;;5028872;28;20140;-64
2022/03/14 08:34:10;;;;;;;12.10;10.73;;;;;;;;;;5027833;28;20474;-63
2022/03/14 08:36:40;;;;;;;11.23;10.07;;;;;;;;;;5027366;28;20451;-64
2022/03/14 08:39:06;;;;;;;10.10;9.07;;;;;;;;;;5026635;28;20049;-63
2022/03/14 08:41:36;;;;;;;13.18;11.13;;;;;;;;;;5027429;28;20094;-63
2022/03/14 08:44:06;;;;;;;11.35;10.25;;;;;;;;;;5027860;28;20060;-64
2022/03/14 08:46:32;;;;;;;12.10;10.95;;;;;;;;;;5026886;28;20056;-63
2022/03/14 08:48:58;;;;;;;11.10;10.00;;;;;;;;;;5027547;28;20198;-64
2022/03/14 08:51:25;;;;;;;12.90;11.60;;;;;;;;;;5029009;28;20482;-65
2022/03/14 08:53:51;;;;;;;12.32;11.05;;;;;;;;;;5026489;28;20052;-65
2022/03/14 08:56:17;;;;;;;12.93;11.55;;;;;;;;;;5026234;28;20135;-64
2022/03/14 08:58:45;;;;;;;13.10;11.70;;;;;;;;;;5027650;28;20036;-64
2022/03/14 09:01:12;;;;;;;14.05;12.35;;;;;;;;;;5004790;28;20131;-63
2022/03/14 09:03:38;;;;;;;14.32;12.93;;;;;;;;;;5025587;28;20041;-63
2022/03/14 09:06:05;;;;;;;13.65;12.25;;;;;;;;;;5022440;28;20042;-65
2022/03/14 09:08:31;;;;;;;14.32;12.70;;;;;;;;;;5026169;28;20041;-63
2022/03/14 09:11:00;;;;;;;14.98;13.38;;;;;;;;;;5027223;28;20041;-63
2022/03/14 09:13:26;;;;;;;16.08;13.50;;;;;;;;;;5028462;28;20067;-63
2022/03/14 09:15:52;;;;;;;16.38;13.40;;;;;;;;;;5029306;28;20107;-62
2022/03/14 09:18:31;;;;;;;17.63;15.20;;;;;;;;;;5028289;28;20040;-62
2022/03/14 09:20:58;;;;;;;16.73;13.70;;;;;;;;;;5029125;28;20049;-62
2022/03/14 09:23:26;;;;;;;14.73;13.23;;;;;;;;;;5027255;28;20041;-62
2022/03/14 09:25:52;;;;;;;15.00;12.82;;;;;;;;;;5027241;28;20498;-63
2022/03/14 09:28:20;;;;;;;16.75;13.30;;;;;;;;;;5028140;28;20056;-62
2022/03/14 09:30:47;;;;;;;15.93;14.30;;;;;;;;;;5028021;28;20093;-63
2022/03/14 09:33:13;;;;;;;13.40;11.95;;;;;;;;;;5011662;28;20132;-61
2022/03/14 09:35:40;;;;;;;15.85;14.23;;;;;;;;;;5026263;28;20553;-64
2022/03/14 09:38:06;;;;;;;17.70;14.50;;;;;;;;;;5027252;28;20344;-64
2022/03/14 09:40:32;;;;;;;17.25;15.45;;;;;;;;;;5028951;28;20034;-62
2022/03/14 09:42:59;;;;;;;18.02;14.85;;;;;;;;;;5010936;28;20479;-62
2022/03/14 09:45:26;;;;;;;16.30;14.43;;;;;;;;;;5029334;28;20060;-64
2022/03/14 09:47:59;;;;;;;21.02;15.25;;;;;;;;;;5025082;28;20048;-62
2022/03/14 09:50:35;;;;;;;17.58;15.68;;;;;;;;;;5027924;28;20501;-61
2022/03/14 09:53:05;;;;;;;19.55;16.10;;;;;;;;;;5027370;28;20053;-61
2022/03/14 09:55:41;;;;;;;18.20;15.95;;;;;;;;;;5028683;28;20467;-62
2022/03/14 09:58:07;;;;;;;;;;;;;;;;;;5027113;28;20045;-62
2022/03/14 10:00:34;;;;;;;18.10;14.55;;;;;;;;;;5027886;28;20008;-64
2022/03/14 10:03:02;;;;;;;19.67;16.23;;;;;;;;;;5027452;28;20042;-64
2022/03/14 10:05:28;;;;;;;19.33;17.33;;;;;;;;;;5028104;28;20399;-63
2022/03/14 10:08:00;;;;;;;15.80;14.18;;;;;;;;;;5028029;28;20099;-64
2022/03/14 10:10:26;;;;;;;18.52;16.63;;;;;;;;;;5010593;28;20042;-63
2022/03/14 10:12:57;;;;;;;18.55;15.63;;;;;;;;;;5027058;28;20067;-63
2022/03/14 10:15:27;;;;;;;21.17;18.83;;;;;;;;;;5026902;28;20048;-64
2022/03/14 10:17:54;;;;;;;33.10;18.02;;;;;;;;;;5028677;28;20129;-63
2022/03/14 10:20:25;;;;;;;17.40;15.60;;;;;;;;;;5027932;28;20142;-64
2022/03/14 10:22:52;;;;;;;21.73;17.27;;;;;;;;;;5027247;28;20073;-64
2022/03/14 10:25:19;;;;;;;19.63;17.52;;;;;;;;;;5026725;28;20044;-63
2022/03/14 10:27:57;;;;;;;22.67;20.33;;;;;;;;;;5026890;28;20033;-62
2022/03/14 10:30:35;;;;;;;22.25;17.75;;;;;;;;;;5025518;28;20045;-64
2022/03/14 10:33:12;;;;;;;24.90;20.50;;;;;;;;;;5009795;28;20044;-64
2022/03/14 10:35:39;;;;;;;21.05;18.38;;;;;;;;;;5026308;28;20048;-62
2022/03/14 10:38:06;;;;;;;21.05;18.55;;;;;;;;;;5026765;28;20049;-63
2022/03/14 10:40:34;;;;;;;20.50;18.42;;;;;;;;;;5027812;28;20034;-64
2022/03/14 10:43:01;;;;;;;22.48;20.08;;;;;;;;;;5026675;28;20041;-63
2022/03/14 10:45:27;;;;;;;22.02;19.52;;;;;;;;;;5027883;28;20039;-64
2022/03/14 10:47:57;;;;;;;25.00;22.33;;;;;;;;;;5008920;28;20048;-62
2022/03/14 10:50:33;;;;;;;21.98;19.67;;;;;;;;;;5025179;28;21264;-63
2022/03/14 10:53:03;;;;;;;25.77;21.67;;;;;;;;;;5026515;28;20033;-65
2022/03/14 10:55:37;;;;;;;24.83;22.10;;;;;;;;;;5027579;28;20044;-62
2022/03/14 10:58:03;;;;;;;;;;;;;;;;;;5027225;28;20029;-63
2022/03/14 11:00:43;;;;;;;22.08;19.02;;;;;;;;;;5027780;28;19979;-65
2022/03/14 11:03:09;;;;;;;27.58;24.30;;;;;;;;;;5026784;28;20045;-64
2022/03/14 11:05:45;;;;;;;23.55;21.02;;;;;;;;;;5024062;28;20080;-62
2022/03/14 11:08:37;;;;;;;27.15;23.52;;;;;;;;;;5026714;28;20408;-64
2022/03/14 11:11:08;;;;;;;28.92;23.83;;;;;;;;;;5008076;28;20095;-64
2022/03/14 11:13:39;;;;;;;25.88;20.65;;;;;;;;;;5026330;28;20037;-63
2022/03/14 11:16:05;;;;;;;22.10;18.88;;;;;;;;;;5025554;28;20039;-63
2022/03/14 11:18:33;;;;;;;24.48;20.92;;;;;;;;;;5027672;28;20040;-63
2022/03/14 11:21:00;;;;;;;21.70;15.95;;;;;;;;;;5026349;28;20056;-62
2022/03/14 11:23:27;;;;;;;30.30;21.52;;;;;;;;;;5009963;28;20394;-62
2022/03/14 11:25:53;;;;;;;30.48;20.25;;;;;;;;;;5026231;28;20072;-63
2022/03/14 11:28:24;;;;;;;23.58;14.85;;;;;;;;;;5026433;28;20073;-63
2022/03/14 11:30:54;;;;;;;29.60;18.27;;;;;;;;;;5026208;28;20395;-62
2022/03/14 11:33:21;;;;;;;26.55;15.75;;;;;;;;;;5027639;28;20037;-63
2022/03/14 11:35:48;;;;;;;32.55;18.83;;;;;;;;;;5026233;28;20042;-63
2022/03/14 11:38:15;;;;;;;36.95;18.05;;;;;;;;;;5025821;28;20462;-62
2022/03/14 11:40:42;;;;;;;32.35;15.95;;;;;;;;;;5026263;28;20090;-62
2022/03/14 11:43:09;;;;;;;34.40;17.95;;;;;;;;;;5025845;28;20053;-62
2022/03/14 11:45:36;;;;;;;29.70;16.02;;;;;;;;;;5027471;28;20053;-64
2022/03/14 11:48:04;;;;;;;36.20;17.40;;;;;;;;;;5025946;28;20490;-62
2022/03/14 11:50:40;;;;;;;30.40;14.85;;;;;;;;;;5025760;28;20571;-63
2022/03/14 11:53:06;;;;;;;31.83;16.52;;;;;;;;;;5026037;28;20407;-63
2022/03/14 11:55:32;;;;;;;35.83;16.52;;;;;;;;;;5026053;28;20451;-63
2022/03/14 11:57:59;;;;;;;28.58;14.10;;;;;;;;;;5027170;28;20052;-63
2022/03/14 12:00:30;;;;;;;29.08;14.73;;;;;;;;;;5027602;28;20120;-63
2022/03/14 12:03:02;;;;;;;34.60;15.13;;;;;;;;;;5030907;28;20037;-63
2022/03/14 12:05:31;;;;;;;31.13;13.32;;;;;;;;;;5030551;28;20033;-62
2022/03/14 12:07:57;;;;;;;26.08;12.50;;;;;;;;;;5029688;28;20041;-62
2022/03/14 12:10:26;;;;;;;26.58;10.73;;;;;;;;;;5030418;28;20519;-62
2022/03/14 12:12:58;;;;;;;27.48;11.75;;;;;;;;;;5029095;28;20050;-63
2022/03/14 12:15:39;;;;;;;28.80;13.18;;;;;;;;;;5029342;28;20491;-62
2022/03/14 12:18:23;;;;;;;41.28;17.10;;;;;;;;;;5027638;28;20076;-62
2022/03/14 12:20:54;;;;;;;36.13;14.55;;;;;;;;;;5027599;28;20060;-63
2022/03/14 12:23:22;;;;;;;29.30;13.18;;;;;;;;;;5028673;28;20559;-63
2022/03/14 12:25:48;;;;;;;28.80;12.23;;;;;;;;;;5030259;28;20065;-62
2022/03/14 12:28:33;;;;;;;35.47;15.15;;;;;;;;;;5030208;28;20277;-62
2022/03/14 12:31:00;;;;;;;32.83;14.02;;;;;;;;;;5028492;28;20053;-63
2022/03/14 12:33:34;;;;;;;25.75;12.80;;;;;;;;;;5028644;28;20128;-63
2022/03/14 12:36:19;;;;;;;25.00;12.10;;;;;;;;;;5030146;28;20395;-62
2022/03/14 12:39:05;;;;;;;33.83;15.00;;;;;;;;;;5028335;28;20509;-62
2022/03/14 12:41:31;;;;;;;30.92;13.13;;;;;;;;;;5029625;28;20140;-64
2022/03/14 12:43:58;;;;;;;28.42;14.02;;;;;;;;;;5030119;28;20479;-62
2022/03/14 12:46:25;;;;;;;31.70;14.55;;;;;;;;;;5030385;28;20055;-63
2022/03/14 12:48:52;;;;;;;41.15;16.65;;;;;;;;;;5027354;28;20052;-62
2022/03/14 12:51:31;;;;;;;37.15;17.10;;;;;;;;;;5029362;28;20048;-63
2022/03/14 12:53:58;;;;;;;29.90;14.88;;;;;;;;;;5027319;28;20482;-62
2022/03/14 12:56:26;;;;;;;32.35;14.70;;;;;;;;;;5026896;28;20133;-62
2022/03/14 12:59:03;;;;;;;33.60;16.05;;;;;;;;;;5026253;28;20136;-62
2022/03/14 13:01:30;;;;;;;33.70;14.98;;;;;;;;;;5028575;28;20150;-63
2022/03/14 13:03:57;;;;;;;34.33;15.40;;;;;;;;;;5029911;28;20041;-63
2022/03/14 13:06:31;;;;;;;29.65;14.50;;;;;;;;;;5029885;28;20129;-62
2022/03/14 13:08:58;;;;;;;37.63;15.80;;;;;;;;;;5010379;28;20049;-64
2022/03/14 13:11:32;;;;;;;34.22;14.70;;;;;;;;;;5029723;28;20041;-63
2022/03/14 13:14:02;;;;;;;25.77;12.70;;;;;;;;;;5026672;28;20049;-63
2022/03/14 13:16:29;;;;;;;31.23;14.75;;;;;;;;;;5029427;28;20478;-62
2022/03/14 13:18:56;;;;;;;29.58;15.27;;;;;;;;;;5024956;28;20446;-63
2022/03/14 13:21:29;;;;;;;29.75;13.65;;;;;;;;;;5029877;28;20076;-62
2022/03/14 13:23:56;;;;;;;25.58;14.38;;;;;;;;;;5027609;28;20057;-62
2022/03/14 13:26:23;;;;;;;30.73;15.70;;;;;;;;;;5029043;28;20047;-62
2022/03/14 13:28:50;;;;;;;26.75;14.32;;;;;;;;;;5026845;28;20041;-63
2022/03/14 13:31:16;;;;;;;29.92;16.35;;;;;;;;;;5027512;28;20121;-64
2022/03/14 13:33:43;;;;;;;29.50;15.50;;;;;;;;;;5028804;28;20740;-62
2022/03/14 13:36:16;;;;;;;26.15;15.27;;;;;;;;;;5027660;28;20156;-62
2022/03/14 13:38:48;;;;;;;31.45;16.98;;;;;;;;;;5027185;28;20045;-62
2022/03/14 13:41:17;;;;;;;38.23;21.13;;;;;;;;;;5027658;28;20095;-63
2022/03/14 13:43:44;;;;;;;31.50;17.02;;;;;;;;;;5028755;28;20298;-62
2022/03/14 13:46:32;;;;;;;39.75;22.92;;;;;;;;;;5025089;28;20340;-62
2022/03/14 13:49:00;;;;;;;40.90;22.15;;;;;;;;;;5027529;28;20528;-62
2022/03/14 13:51:28;;;;;;;28.15;16.08;;;;;;;;;;5006655;28;20099;-63
2022/03/14 13:53:54;;;;;;;29.08;17.58;;;;;;;;;;5023922;28;20038;-62
2022/03/14 13:56:20;;;;;;;29.38;16.83;;;;;;;;;;5025406;28;20056;-63
2022/03/14 13:58:56;;;;;;;34.33;22.25;;;;;;;;;;5027172;28;20394;-62
2022/03/14 14:01:39;;;;;;;33.80;19.30;;;;;;;;;;5034584;28;20052;-62
2022/03/14 14:04:18;;;;;;;32.10;19.13;;;;;;;;;;5026018;28;20589;-62
2022/03/14 14:06:50;;;;;;;26.58;18.10;;;;;;;;;;5025091;28;20083;-63
2022/03/14 14:09:17;;;;;;;35.00;20.45;;;;;;;;;;5027578;28;20052;-63
2022/03/14 14:11:55;;;;;;;31.65;17.70;;;;;;;;;;5027660;28;20656;-63
2022/03/14 14:14:25;;;;;;;34.60;18.75;;;;;;;;;;5028220;28;20124;-64
2022/03/14 14:16:52;;;;;;;29.70;15.98;;;;;;;;;;5024367;28;20566;-62
2022/03/14 14:19:18;;;;;;;32.17;15.98;;;;;;;;;;5026787;28;20045;-63
2022/03/14 14:21:55;;;;;;;40.28;17.58;;;;;;;;;;5026528;28;20420;-65
2022/03/14 14:24:24;;;;;;;36.42;17.30;;;;;;;;;;5008122;28;20042;-63
2022/03/14 14:26:51;;;;;;;29.77;15.38;;;;;;;;;;5025889;28;20533;-62
2022/03/14 14:29:36;;;;;;;30.25;13.73;;;;;;;;;;5025258;28;20033;-63